메인 페이지
METAR-TAF:

METAR-TAF

공항 :

지브롤터 공항

지브롤터, 지브롤터

위도: 36-09N, 경도: 005-21W, 고도: 5m

현재 날씨관측

예보는 1 시간 3분 전, 22:50시(UTC)에 발표되었습니다.
14kt
온도 15°C
습도 82%
기압 1020 hPa
시정 10km 이상

METAR: LXGB 242250Z AUTO 27014KT 9999 NCD 15/12 Q1020

시각: 00:53 (23:53 UTC)

예보

예보는 7 시간 35분 전, 16:18시(UTC)에 발표되었습니다.
예보 대상 시간: 24일 18시부터 24일 23시까지 (UTC)
서남서8kt
시정 10km 이상
고도 2500ft 상공 구름 보통
고도 4500ft 상공 구름 많음
일시적
24일 18시부터 24일 23시까지 (UTC)
시정: 6000m
고도 1800ft 상공 구름 많음
확률 30% :
일시적
24일 18시부터 24일 19시까지 (UTC)
시정: 2000m
고도 400ft 상공 구름 보통
고도 1000ft 상공 흐림
비, 이슬비

TAF: LXGB 241618Z 2418/2423 25008KT 9999 SCT025 BKN045 TEMPO 2418/2423 6000 RA BKN018 PROB30 TEMPO 2418/2419 2000 RADZ SCT004 OVC010

4,000개 이상의 공항 관측 자료 및 예보 (METAR 및 TAF 보고).

지도상에서 검색 가능한 기상관측소가 노란 점과 빨간 점으로 표시되어 있습니다.

기상관측소 명을 보려면 표시 위로 마우스를 이동하세요.

날씨 관측과 예보를 보려면 클릭하세요.

지도 변경 : 확대하려면 엑스 표시가 있는 녹색 버튼, 축소하려면 빼기 표시가 있는 녹색 버튼, 다음 페이지의 지도를 보려면 녹색 화살표를 클릭하세요.


METAR-TAF: